sensor_id;sensor_type;location;lat;lon;timestamp;P1;durP1;ratioP1;P2;durP2;ratioP2
62258;SDS011;48241;48.824;10.102;2022-11-15T00:02:07;4.05;;;2.08;;
62258;SDS011;48241;48.824;10.102;2022-11-15T00:04:33;5.60;;;1.67;;
62258;SDS011;48241;48.824;10.102;2022-11-15T00:06:58;3.88;;;2.10;;
62258;SDS011;48241;48.824;10.102;2022-11-15T00:09:24;6.93;;;2.05;;
62258;SDS011;48241;48.824;10.102;2022-11-15T00:11:50;3.42;;;1.75;;
62258;SDS011;48241;48.824;10.102;2022-11-15T00:14:16;3.75;;;1.90;;
62258;SDS011;48241;48.824;10.102;2022-11-15T00:16:42;4.25;;;2.03;;
62258;SDS011;48241;48.824;10.102;2022-11-15T00:19:08;3.22;;;1.70;;
62258;SDS011;48241;48.824;10.102;2022-11-15T00:21:34;2.55;;;1.90;;
62258;SDS011;48241;48.824;10.102;2022-11-15T00:24:00;3.80;;;1.67;;
62258;SDS011;48241;48.824;10.102;2022-11-15T00:26:25;2.60;;;1.73;;
62258;SDS011;48241;48.824;10.102;2022-11-15T00:28:51;3.80;;;2.08;;
62258;SDS011;48241;48.824;10.102;2022-11-15T00:31:18;3.05;;;1.70;;
62258;SDS011;48241;48.824;10.102;2022-11-15T00:33:44;3.85;;;1.73;;
62258;SDS011;48241;48.824;10.102;2022-11-15T00:36:10;4.32;;;2.00;;
62258;SDS011;48241;48.824;10.102;2022-11-15T00:38:36;4.13;;;1.80;;
62258;SDS011;48241;48.824;10.102;2022-11-15T00:41:03;3.45;;;2.15;;
62258;SDS011;48241;48.824;10.102;2022-11-15T00:43:30;3.60;;;1.90;;
62258;SDS011;48241;48.824;10.102;2022-11-15T00:45:56;6.18;;;2.05;;
62258;SDS011;48241;48.824;10.102;2022-11-15T00:48:21;4.28;;;1.75;;
62258;SDS011;48241;48.824;10.102;2022-11-15T00:50:47;3.53;;;1.75;;
62258;SDS011;48241;48.824;10.102;2022-11-15T00:53:14;2.42;;;1.77;;
62258;SDS011;48241;48.824;10.102;2022-11-15T00:55:39;2.13;;;1.50;;
62258;SDS011;48241;48.824;10.102;2022-11-15T00:58:05;3.67;;;2.00;;
62258;SDS011;48241;48.824;10.102;2022-11-15T01:00:31;4.20;;;1.88;;
62258;SDS011;48241;48.824;10.102;2022-11-15T01:02:56;4.07;;;2.10;;
62258;SDS011;48241;48.824;10.102;2022-11-15T01:05:22;3.05;;;1.70;;
62258;SDS011;48241;48.824;10.102;2022-11-15T01:07:51;3.72;;;2.00;;
62258;SDS011;48241;48.824;10.102;2022-11-15T01:10:17;4.22;;;1.90;;
62258;SDS011;48241;48.824;10.102;2022-11-15T01:12:43;2.55;;;1.60;;
62258;SDS011;48241;48.824;10.102;2022-11-15T01:15:09;2.80;;;1.67;;
62258;SDS011;48241;48.824;10.102;2022-11-15T01:17:34;2.67;;;1.65;;
62258;SDS011;48241;48.824;10.102;2022-11-15T01:20:00;3.03;;;1.77;;
62258;SDS011;48241;48.824;10.102;2022-11-15T01:22:26;4.00;;;1.80;;
62258;SDS011;48241;48.824;10.102;2022-11-15T01:24:51;3.33;;;1.90;;
62258;SDS011;48241;48.824;10.102;2022-11-15T01:27:17;4.50;;;1.90;;
62258;SDS011;48241;48.824;10.102;2022-11-15T01:29:42;2.50;;;1.70;;
62258;SDS011;48241;48.824;10.102;2022-11-15T01:32:08;3.67;;;1.40;;
62258;SDS011;48241;48.824;10.102;2022-11-15T01:34:34;2.42;;;1.58;;
62258;SDS011;48241;48.824;10.102;2022-11-15T01:36:59;2.47;;;1.42;;
62258;SDS011;48241;48.824;10.102;2022-11-15T01:39:25;3.20;;;1.70;;
62258;SDS011;48241;48.824;10.102;2022-11-15T01:41:51;3.38;;;2.00;;
62258;SDS011;48241;48.824;10.102;2022-11-15T01:47:21;1.88;;;1.67;;
62258;SDS011;48241;48.824;10.102;2022-11-15T01:52:30;2.58;;;1.90;;
62258;SDS011;48241;48.824;10.102;2022-11-15T01:55:00;3.00;;;1.77;;
62258;SDS011;48241;48.824;10.102;2022-11-15T01:57:38;2.00;;;1.65;;
62258;SDS011;48241;48.824;10.102;2022-11-15T02:00:06;3.92;;;1.80;;
62258;SDS011;48241;48.824;10.102;2022-11-15T02:02:32;3.20;;;1.83;;
62258;SDS011;48241;48.824;10.102;2022-11-15T02:07:31;2.53;;;1.77;;
62258;SDS011;48241;48.824;10.102;2022-11-15T02:09:59;3.08;;;1.83;;
62258;SDS011;48241;48.824;10.102;2022-11-15T02:12:31;3.35;;;1.85;;
62258;SDS011;48241;48.824;10.102;2022-11-15T02:14:58;3.88;;;1.65;;
62258;SDS011;48241;48.824;10.102;2022-11-15T02:28:45;2.80;;;2.00;;
62258;SDS011;48241;48.824;10.102;2022-11-15T02:37:19;3.13;;;1.70;;
62258;SDS011;48241;48.824;10.102;2022-11-15T02:40:03;2.65;;;1.80;;
62258;SDS011;48241;48.824;10.102;2022-11-15T02:42:35;2.58;;;1.65;;
62258;SDS011;48241;48.824;10.102;2022-11-15T02:45:27;3.15;;;1.73;;
62258;SDS011;48241;48.824;10.102;2022-11-15T02:47:56;4.50;;;2.13;;
62258;SDS011;48241;48.824;10.102;2022-11-15T02:50:25;2.70;;;1.75;;
62258;SDS011;48241;48.824;10.102;2022-11-15T02:52:53;3.45;;;1.80;;
62258;SDS011;48241;48.824;10.102;2022-11-15T02:55:33;3.22;;;1.60;;
62258;SDS011;48241;48.824;10.102;2022-11-15T03:00:40;3.08;;;2.13;;
62258;SDS011;48241;48.824;10.102;2022-11-15T03:03:41;3.75;;;1.90;;
62258;SDS011;48241;48.824;10.102;2022-11-15T03:11:29;4.25;;;1.95;;
62258;SDS011;48241;48.824;10.102;2022-11-15T03:14:07;3.42;;;1.70;;
62258;SDS011;48241;48.824;10.102;2022-11-15T03:19:13;4.05;;;2.05;;
62258;SDS011;48241;48.824;10.102;2022-11-15T03:21:52;3.17;;;1.83;;
62258;SDS011;48241;48.824;10.102;2022-11-15T03:24:20;4.00;;;1.73;;
62258;SDS011;48241;48.824;10.102;2022-11-15T03:26:47;4.47;;;2.40;;
62258;SDS011;48241;48.824;10.102;2022-11-15T03:29:16;2.78;;;2.13;;
62258;SDS011;48241;48.824;10.102;2022-11-15T03:31:48;2.88;;;2.17;;
62258;SDS011;48241;48.824;10.102;2022-11-15T03:36:43;4.35;;;2.85;;
62258;SDS011;48241;48.824;10.102;2022-11-15T03:39:09;3.47;;;2.70;;
62258;SDS011;48241;48.824;10.102;2022-11-15T03:41:39;6.72;;;2.75;;
62258;SDS011;48241;48.824;10.102;2022-11-15T03:47:07;4.88;;;3.45;;
62258;SDS011;48241;48.824;10.102;2022-11-15T03:49:42;5.30;;;3.30;;
62258;SDS011;48241;48.824;10.102;2022-11-15T03:52:11;6.82;;;4.50;;
62258;SDS011;48241;48.824;10.102;2022-11-15T03:54:46;5.15;;;3.50;;
62258;SDS011;48241;48.824;10.102;2022-11-15T03:57:13;5.75;;;4.03;;
62258;SDS011;48241;48.824;10.102;2022-11-15T03:59:38;4.35;;;3.33;;
62258;SDS011;48241;48.824;10.102;2022-11-15T04:02:04;5.82;;;4.07;;
62258;SDS011;48241;48.824;10.102;2022-11-15T04:04:29;7.00;;;3.65;;
62258;SDS011;48241;48.824;10.102;2022-11-15T04:06:55;7.68;;;4.20;;
62258;SDS011;48241;48.824;10.102;2022-11-15T04:09:20;5.82;;;3.28;;
62258;SDS011;48241;48.824;10.102;2022-11-15T04:11:46;5.13;;;4.13;;
62258;SDS011;48241;48.824;10.102;2022-11-15T04:14:11;5.47;;;4.20;;
62258;SDS011;48241;48.824;10.102;2022-11-15T04:16:37;7.40;;;4.95;;
62258;SDS011;48241;48.824;10.102;2022-11-15T04:19:02;6.72;;;4.60;;
62258;SDS011;48241;48.824;10.102;2022-11-15T04:21:47;7.07;;;4.03;;
62258;SDS011;48241;48.824;10.102;2022-11-15T04:24:31;5.88;;;4.40;;
62258;SDS011;48241;48.824;10.102;2022-11-15T04:26:56;8.35;;;4.65;;
62258;SDS011;48241;48.824;10.102;2022-11-15T04:29:22;8.38;;;4.20;;
62258;SDS011;48241;48.824;10.102;2022-11-15T04:32:00;6.35;;;4.40;;
62258;SDS011;48241;48.824;10.102;2022-11-15T04:34:27;6.25;;;4.65;;
62258;SDS011;48241;48.824;10.102;2022-11-15T04:36:52;7.72;;;4.93;;
62258;SDS011;48241;48.824;10.102;2022-11-15T04:39:36;6.47;;;4.25;;
62258;SDS011;48241;48.824;10.102;2022-11-15T04:42:02;9.40;;;4.63;;
62258;SDS011;48241;48.824;10.102;2022-11-15T04:44:28;12.00;;;7.03;;
62258;SDS011;48241;48.824;10.102;2022-11-15T04:46:54;7.78;;;5.38;;
62258;SDS011;48241;48.824;10.102;2022-11-15T04:49:19;8.73;;;6.82;;
62258;SDS011;48241;48.824;10.102;2022-11-15T04:51:46;11.15;;;7.05;;
62258;SDS011;48241;48.824;10.102;2022-11-15T04:54:11;7.47;;;4.93;;
62258;SDS011;48241;48.824;10.102;2022-11-15T04:56:37;10.82;;;6.20;;
62258;SDS011;48241;48.824;10.102;2022-11-15T04:59:03;9.00;;;5.88;;
62258;SDS011;48241;48.824;10.102;2022-11-15T05:01:28;11.65;;;5.57;;
62258;SDS011;48241;48.824;10.102;2022-11-15T05:03:54;10.55;;;6.05;;
62258;SDS011;48241;48.824;10.102;2022-11-15T05:06:38;7.75;;;5.47;;
62258;SDS011;48241;48.824;10.102;2022-11-15T05:09:04;10.90;;;5.78;;
62258;SDS011;48241;48.824;10.102;2022-11-15T05:11:29;7.10;;;4.55;;
62258;SDS011;48241;48.824;10.102;2022-11-15T05:13:55;12.35;;;5.63;;
62258;SDS011;48241;48.824;10.102;2022-11-15T05:16:21;8.85;;;5.80;;
62258;SDS011;48241;48.824;10.102;2022-11-15T05:18:48;8.15;;;5.25;;
62258;SDS011;48241;48.824;10.102;2022-11-15T05:21:16;8.95;;;6.05;;
62258;SDS011;48241;48.824;10.102;2022-11-15T05:23:42;12.45;;;6.28;;
62258;SDS011;48241;48.824;10.102;2022-11-15T05:26:07;6.90;;;4.78;;
62258;SDS011;48241;48.824;10.102;2022-11-15T05:28:34;5.22;;;3.22;;
62258;SDS011;48241;48.824;10.102;2022-11-15T05:31:05;8.95;;;5.57;;
62258;SDS011;48241;48.824;10.102;2022-11-15T05:33:30;8.23;;;5.30;;
62258;SDS011;48241;48.824;10.102;2022-11-15T05:36:01;7.85;;;5.88;;
62258;SDS011;48241;48.824;10.102;2022-11-15T05:38:30;7.82;;;5.63;;
62258;SDS011;48241;48.824;10.102;2022-11-15T05:40:56;7.60;;;5.72;;
62258;SDS011;48241;48.824;10.102;2022-11-15T05:43:22;7.18;;;4.97;;
62258;SDS011;48241;48.824;10.102;2022-11-15T05:45:48;9.43;;;5.53;;
62258;SDS011;48241;48.824;10.102;2022-11-15T05:48:14;6.03;;;5.30;;
62258;SDS011;48241;48.824;10.102;2022-11-15T05:50:41;8.30;;;6.10;;
62258;SDS011;48241;48.824;10.102;2022-11-15T05:53:10;11.98;;;6.32;;
62258;SDS011;48241;48.824;10.102;2022-11-15T05:55:39;7.03;;;5.28;;
62258;SDS011;48241;48.824;10.102;2022-11-15T05:58:06;10.35;;;6.40;;
62258;SDS011;48241;48.824;10.102;2022-11-15T06:00:31;9.90;;;6.22;;
62258;SDS011;48241;48.824;10.102;2022-11-15T06:02:57;8.80;;;5.65;;
62258;SDS011;48241;48.824;10.102;2022-11-15T06:05:23;8.43;;;6.18;;
62258;SDS011;48241;48.824;10.102;2022-11-15T06:07:49;7.43;;;5.32;;
62258;SDS011;48241;48.824;10.102;2022-11-15T06:10:14;8.27;;;5.90;;
62258;SDS011;48241;48.824;10.102;2022-11-15T06:12:41;7.97;;;4.72;;
62258;SDS011;48241;48.824;10.102;2022-11-15T06:15:06;8.00;;;5.80;;
62258;SDS011;48241;48.824;10.102;2022-11-15T06:17:32;8.13;;;5.40;;
62258;SDS011;48241;48.824;10.102;2022-11-15T06:19:58;6.45;;;4.70;;
62258;SDS011;48241;48.824;10.102;2022-11-15T06:22:24;10.35;;;5.28;;
62258;SDS011;48241;48.824;10.102;2022-11-15T06:24:49;6.55;;;4.82;;
62258;SDS011;48241;48.824;10.102;2022-11-15T06:27:15;6.65;;;4.85;;
62258;SDS011;48241;48.824;10.102;2022-11-15T06:29:41;6.15;;;4.38;;
62258;SDS011;48241;48.824;10.102;2022-11-15T06:32:06;7.78;;;4.90;;
62258;SDS011;48241;48.824;10.102;2022-11-15T06:34:32;7.53;;;5.20;;
62258;SDS011;48241;48.824;10.102;2022-11-15T06:36:57;6.63;;;4.88;;
62258;SDS011;48241;48.824;10.102;2022-11-15T06:39:23;6.50;;;4.70;;
62258;SDS011;48241;48.824;10.102;2022-11-15T06:41:49;6.22;;;4.32;;
62258;SDS011;48241;48.824;10.102;2022-11-15T06:44:14;5.72;;;4.10;;
62258;SDS011;48241;48.824;10.102;2022-11-15T06:46:41;6.10;;;4.60;;
62258;SDS011;48241;48.824;10.102;2022-11-15T06:49:06;6.95;;;4.78;;
62258;SDS011;48241;48.824;10.102;2022-11-15T06:51:32;6.00;;;5.03;;
62258;SDS011;48241;48.824;10.102;2022-11-15T06:53:58;6.85;;;4.75;;
62258;SDS011;48241;48.824;10.102;2022-11-15T06:56:23;8.73;;;4.72;;
62258;SDS011;48241;48.824;10.102;2022-11-15T06:58:49;5.95;;;4.25;;
62258;SDS011;48241;48.824;10.102;2022-11-15T07:01:14;7.22;;;3.42;;
62258;SDS011;48241;48.824;10.102;2022-11-15T07:03:41;6.63;;;3.90;;
62258;SDS011;48241;48.824;10.102;2022-11-15T07:06:08;4.57;;;3.40;;
62258;SDS011;48241;48.824;10.102;2022-11-15T07:08:34;3.55;;;2.72;;
62258;SDS011;48241;48.824;10.102;2022-11-15T07:11:01;5.82;;;3.28;;
62258;SDS011;48241;48.824;10.102;2022-11-15T07:13:30;4.80;;;3.13;;
62258;SDS011;48241;48.824;10.102;2022-11-15T07:16:06;3.80;;;3.00;;
62258;SDS011;48241;48.824;10.102;2022-11-15T07:18:34;4.10;;;3.00;;
62258;SDS011;48241;48.824;10.102;2022-11-15T07:21:02;3.33;;;2.92;;
62258;SDS011;48241;48.824;10.102;2022-11-15T07:23:35;4.35;;;3.03;;
62258;SDS011;48241;48.824;10.102;2022-11-15T07:26:04;5.32;;;3.75;;
62258;SDS011;48241;48.824;10.102;2022-11-15T07:28:31;5.60;;;3.60;;
62258;SDS011;48241;48.824;10.102;2022-11-15T07:30:56;5.95;;;3.75;;
62258;SDS011;48241;48.824;10.102;2022-11-15T07:33:22;4.60;;;3.60;;
62258;SDS011;48241;48.824;10.102;2022-11-15T07:35:48;5.18;;;4.10;;
62258;SDS011;48241;48.824;10.102;2022-11-15T07:38:13;5.65;;;4.20;;
62258;SDS011;48241;48.824;10.102;2022-11-15T07:40:45;4.55;;;3.75;;
62258;SDS011;48241;48.824;10.102;2022-11-15T07:43:12;6.55;;;4.07;;
62258;SDS011;48241;48.824;10.102;2022-11-15T07:45:44;4.75;;;3.90;;
62258;SDS011;48241;48.824;10.102;2022-11-15T07:48:10;6.43;;;4.43;;
62258;SDS011;48241;48.824;10.102;2022-11-15T07:50:36;5.85;;;4.07;;
62258;SDS011;48241;48.824;10.102;2022-11-15T07:53:05;6.50;;;4.63;;
62258;SDS011;48241;48.824;10.102;2022-11-15T07:55:31;7.22;;;4.38;;
62258;SDS011;48241;48.824;10.102;2022-11-15T07:58:02;8.63;;;3.50;;
62258;SDS011;48241;48.824;10.102;2022-11-15T08:00:30;7.07;;;3.60;;
62258;SDS011;48241;48.824;10.102;2022-11-15T08:03:09;4.68;;;3.35;;
62258;SDS011;48241;48.824;10.102;2022-11-15T08:05:37;4.10;;;3.28;;
62258;SDS011;48241;48.824;10.102;2022-11-15T08:08:03;4.88;;;3.55;;
62258;SDS011;48241;48.824;10.102;2022-11-15T08:10:29;4.03;;;3.30;;
62258;SDS011;48241;48.824;10.102;2022-11-15T08:15:25;3.35;;;2.65;;
62258;SDS011;48241;48.824;10.102;2022-11-15T08:17:58;4.68;;;2.63;;
62258;SDS011;48241;48.824;10.102;2022-11-15T08:23:50;3.92;;;2.50;;
62258;SDS011;48241;48.824;10.102;2022-11-15T08:26:16;4.60;;;2.40;;
62258;SDS011;48241;48.824;10.102;2022-11-15T08:28:42;5.00;;;2.28;;
62258;SDS011;48241;48.824;10.102;2022-11-15T08:31:12;4.80;;;2.40;;
62258;SDS011;48241;48.824;10.102;2022-11-15T08:33:41;2.88;;;1.95;;
62258;SDS011;48241;48.824;10.102;2022-11-15T08:36:10;2.90;;;2.05;;
62258;SDS011;48241;48.824;10.102;2022-11-15T08:38:39;2.50;;;2.10;;
62258;SDS011;48241;48.824;10.102;2022-11-15T08:41:04;3.92;;;2.20;;
62258;SDS011;48241;48.824;10.102;2022-11-15T08:43:31;4.15;;;2.38;;
62258;SDS011;48241;48.824;10.102;2022-11-15T08:45:57;3.17;;;2.33;;
62258;SDS011;48241;48.824;10.102;2022-11-15T08:48:23;3.72;;;2.42;;
62258;SDS011;48241;48.824;10.102;2022-11-15T08:50:48;3.90;;;2.53;;
62258;SDS011;48241;48.824;10.102;2022-11-15T08:53:14;3.35;;;2.40;;
62258;SDS011;48241;48.824;10.102;2022-11-15T08:55:40;5.07;;;2.55;;
62258;SDS011;48241;48.824;10.102;2022-11-15T08:58:05;4.70;;;3.20;;
62258;SDS011;48241;48.824;10.102;2022-11-15T09:00:32;5.97;;;2.47;;
62258;SDS011;48241;48.824;10.102;2022-11-15T09:02:58;3.13;;;1.90;;
62258;SDS011;48241;48.824;10.102;2022-11-15T09:05:24;2.22;;;1.70;;
62258;SDS011;48241;48.824;10.102;2022-11-15T09:07:53;2.72;;;2.17;;
62258;SDS011;48241;48.824;10.102;2022-11-15T09:10:19;5.07;;;2.10;;
62258;SDS011;48241;48.824;10.102;2022-11-15T09:12:45;2.08;;;1.67;;
62258;SDS011;48241;48.824;10.102;2022-11-15T09:15:13;2.22;;;1.73;;
62258;SDS011;48241;48.824;10.102;2022-11-15T09:17:40;2.53;;;1.60;;
62258;SDS011;48241;48.824;10.102;2022-11-15T09:20:06;2.25;;;1.67;;
62258;SDS011;48241;48.824;10.102;2022-11-15T09:22:32;1.85;;;1.50;;
62258;SDS011;48241;48.824;10.102;2022-11-15T09:24:58;2.55;;;1.67;;
62258;SDS011;48241;48.824;10.102;2022-11-15T09:27:27;2.20;;;1.70;;
62258;SDS011;48241;48.824;10.102;2022-11-15T09:29:56;2.42;;;1.60;;
62258;SDS011;48241;48.824;10.102;2022-11-15T09:32:22;2.30;;;1.90;;
62258;SDS011;48241;48.824;10.102;2022-11-15T09:34:48;3.85;;;1.70;;
62258;SDS011;48241;48.824;10.102;2022-11-15T09:37:14;2.47;;;1.75;;
62258;SDS011;48241;48.824;10.102;2022-11-15T09:39:40;2.90;;;2.22;;
62258;SDS011;48241;48.824;10.102;2022-11-15T09:45:14;6.43;;;3.90;;
62258;SDS011;48241;48.824;10.102;2022-11-15T09:50:45;5.63;;;3.80;;
62258;SDS011;48241;48.824;10.102;2022-11-15T09:53:22;3.78;;;2.78;;
62258;SDS011;48241;48.824;10.102;2022-11-15T10:04:19;7.13;;;4.13;;
62258;SDS011;48241;48.824;10.102;2022-11-15T10:06:49;5.90;;;3.88;;
62258;SDS011;48241;48.824;10.102;2022-11-15T10:09:46;8.38;;;5.40;;
62258;SDS011;48241;48.824;10.102;2022-11-15T10:14:42;7.85;;;5.47;;
62258;SDS011;48241;48.824;10.102;2022-11-15T10:19:48;6.07;;;2.88;;
62258;SDS011;48241;48.824;10.102;2022-11-15T10:22:39;13.05;;;7.75;;
62258;SDS011;48241;48.824;10.102;2022-11-15T10:25:22;8.63;;;5.70;;
62258;SDS011;48241;48.824;10.102;2022-11-15T10:27:57;7.13;;;3.17;;
62258;SDS011;48241;48.824;10.102;2022-11-15T10:30:44;9.18;;;5.00;;
62258;SDS011;48241;48.824;10.102;2022-11-15T10:33:13;6.40;;;3.60;;
62258;SDS011;48241;48.824;10.102;2022-11-15T10:35:42;6.63;;;3.33;;
62258;SDS011;48241;48.824;10.102;2022-11-15T10:38:09;6.40;;;3.92;;
62258;SDS011;48241;48.824;10.102;2022-11-15T10:40:36;5.45;;;4.13;;
62258;SDS011;48241;48.824;10.102;2022-11-15T10:45:34;5.50;;;2.97;;
62258;SDS011;48241;48.824;10.102;2022-11-15T10:50:38;3.65;;;2.55;;
62258;SDS011;48241;48.824;10.102;2022-11-15T10:53:04;6.20;;;3.03;;
62258;SDS011;48241;48.824;10.102;2022-11-15T10:55:47;5.23;;;3.03;;
62258;SDS011;48241;48.824;10.102;2022-11-15T11:00:56;3.55;;;2.25;;
62258;SDS011;48241;48.824;10.102;2022-11-15T11:03:45;5.72;;;2.90;;
62258;SDS011;48241;48.824;10.102;2022-11-15T11:06:24;8.27;;;3.20;;
62258;SDS011;48241;48.824;10.102;2022-11-15T11:08:57;6.72;;;3.58;;
62258;SDS011;48241;48.824;10.102;2022-11-15T11:11:26;6.13;;;3.53;;
62258;SDS011;48241;48.824;10.102;2022-11-15T11:14:12;6.85;;;3.25;;
62258;SDS011;48241;48.824;10.102;2022-11-15T11:16:55;4.82;;;3.13;;
62258;SDS011;48241;48.824;10.102;2022-11-15T11:19:37;7.40;;;2.78;;
62258;SDS011;48241;48.824;10.102;2022-11-15T11:22:19;5.18;;;2.88;;
62258;SDS011;48241;48.824;10.102;2022-11-15T11:27:54;3.17;;;2.47;;
62258;SDS011;48241;48.824;10.102;2022-11-15T11:30:54;2.85;;;2.20;;
62258;SDS011;48241;48.824;10.102;2022-11-15T11:38:57;2.45;;;1.80;;
62258;SDS011;48241;48.824;10.102;2022-11-15T11:47:09;2.05;;;1.65;;
62258;SDS011;48241;48.824;10.102;2022-11-15T11:52:14;2.42;;;1.60;;
62258;SDS011;48241;48.824;10.102;2022-11-15T11:57:44;2.88;;;1.63;;
62258;SDS011;48241;48.824;10.102;2022-11-15T12:00:20;3.45;;;1.67;;
62258;SDS011;48241;48.824;10.102;2022-11-15T12:11:13;2.92;;;1.95;;
62258;SDS011;48241;48.824;10.102;2022-11-15T12:13:56;2.47;;;1.42;;
62258;SDS011;48241;48.824;10.102;2022-11-15T12:16:28;1.95;;;1.58;;
62258;SDS011;48241;48.824;10.102;2022-11-15T12:18:56;1.42;;;1.33;;
62258;SDS011;48241;48.824;10.102;2022-11-15T12:24:02;1.70;;;1.30;;
62258;SDS011;48241;48.824;10.102;2022-11-15T12:26:35;3.17;;;1.60;;
62258;SDS011;48241;48.824;10.102;2022-11-15T12:29:19;1.83;;;1.60;;
62258;SDS011;48241;48.824;10.102;2022-11-15T12:31:56;3.08;;;1.50;;
62258;SDS011;48241;48.824;10.102;2022-11-15T12:36:53;1.85;;;1.40;;
62258;SDS011;48241;48.824;10.102;2022-11-15T12:39:19;1.80;;;1.38;;
62258;SDS011;48241;48.824;10.102;2022-11-15T13:02:30;2.50;;;1.65;;
62258;SDS011;48241;48.824;10.102;2022-11-15T13:12:52;1.73;;;1.42;;
62258;SDS011;48241;48.824;10.102;2022-11-15T13:17:56;2.17;;;1.45;;
62258;SDS011;48241;48.824;10.102;2022-11-15T13:20:29;1.30;;;1.20;;
62258;SDS011;48241;48.824;10.102;2022-11-15T13:25:45;1.98;;;1.63;;
62258;SDS011;48241;48.824;10.102;2022-11-15T13:28:22;1.35;;;1.15;;
62258;SDS011;48241;48.824;10.102;2022-11-15T13:30:56;3.72;;;1.65;;
62258;SDS011;48241;48.824;10.102;2022-11-15T13:33:24;1.88;;;1.40;;
62258;SDS011;48241;48.824;10.102;2022-11-15T13:35:55;1.70;;;1.60;;
62258;SDS011;48241;48.824;10.102;2022-11-15T13:40:50;1.85;;;1.48;;
62258;SDS011;48241;48.824;10.102;2022-11-15T13:48:38;1.73;;;1.50;;
62258;SDS011;48241;48.824;10.102;2022-11-15T13:51:06;2.35;;;1.60;;
62258;SDS011;48241;48.824;10.102;2022-11-15T13:53:41;2.17;;;1.67;;
62258;SDS011;48241;48.824;10.102;2022-11-15T13:56:11;3.53;;;1.80;;
62258;SDS011;48241;48.824;10.102;2022-11-15T13:58:39;1.75;;;1.38;;
62258;SDS011;48241;48.824;10.102;2022-11-15T14:01:05;1.50;;;1.30;;
62258;SDS011;48241;48.824;10.102;2022-11-15T14:03:32;1.67;;;1.58;;
62258;SDS011;48241;48.824;10.102;2022-11-15T14:08:37;3.55;;;1.70;;
62258;SDS011;48241;48.824;10.102;2022-11-15T14:11:08;3.35;;;1.90;;
62258;SDS011;48241;48.824;10.102;2022-11-15T14:16:35;3.40;;;2.00;;
62258;SDS011;48241;48.824;10.102;2022-11-15T14:19:03;3.05;;;1.90;;
62258;SDS011;48241;48.824;10.102;2022-11-15T14:21:30;4.43;;;1.90;;
62258;SDS011;48241;48.824;10.102;2022-11-15T14:24:13;3.92;;;2.08;;
62258;SDS011;48241;48.824;10.102;2022-11-15T14:26:43;3.53;;;2.35;;
62258;SDS011;48241;48.824;10.102;2022-11-15T14:29:28;2.60;;;1.83;;
62258;SDS011;48241;48.824;10.102;2022-11-15T14:34:40;3.80;;;2.20;;
62258;SDS011;48241;48.824;10.102;2022-11-15T14:37:11;3.63;;;2.17;;
62258;SDS011;48241;48.824;10.102;2022-11-15T14:39:44;3.40;;;2.20;;
62258;SDS011;48241;48.824;10.102;2022-11-15T14:42:10;2.78;;;2.00;;
62258;SDS011;48241;48.824;10.102;2022-11-15T14:44:35;2.75;;;1.95;;
62258;SDS011;48241;48.824;10.102;2022-11-15T14:47:01;3.70;;;2.10;;
62258;SDS011;48241;48.824;10.102;2022-11-15T14:49:27;2.67;;;2.08;;
62258;SDS011;48241;48.824;10.102;2022-11-15T14:51:52;2.53;;;1.95;;
62258;SDS011;48241;48.824;10.102;2022-11-15T14:54:18;3.58;;;1.83;;
62258;SDS011;48241;48.824;10.102;2022-11-15T14:56:43;2.60;;;2.20;;
62258;SDS011;48241;48.824;10.102;2022-11-15T14:59:09;3.85;;;2.00;;
62258;SDS011;48241;48.824;10.102;2022-11-15T15:01:34;4.28;;;2.15;;
62258;SDS011;48241;48.824;10.102;2022-11-15T15:04:00;3.45;;;2.22;;
62258;SDS011;48241;48.824;10.102;2022-11-15T15:06:25;3.05;;;2.10;;
62258;SDS011;48241;48.824;10.102;2022-11-15T15:08:51;2.90;;;2.60;;
62258;SDS011;48241;48.824;10.102;2022-11-15T15:11:24;3.33;;;2.50;;
62258;SDS011;48241;48.824;10.102;2022-11-15T15:13:54;3.13;;;2.60;;
62258;SDS011;48241;48.824;10.102;2022-11-15T15:16:22;5.53;;;3.10;;
62258;SDS011;48241;48.824;10.102;2022-11-15T15:18:48;4.75;;;2.42;;
62258;SDS011;48241;48.824;10.102;2022-11-15T15:21:24;4.25;;;2.50;;
62258;SDS011;48241;48.824;10.102;2022-11-15T15:23:52;4.22;;;2.97;;
62258;SDS011;48241;48.824;10.102;2022-11-15T15:26:19;4.43;;;3.17;;
62258;SDS011;48241;48.824;10.102;2022-11-15T15:28:45;3.30;;;2.38;;
62258;SDS011;48241;48.824;10.102;2022-11-15T15:31:10;3.53;;;2.65;;
62258;SDS011;48241;48.824;10.102;2022-11-15T15:33:36;6.72;;;2.95;;
62258;SDS011;48241;48.824;10.102;2022-11-15T15:36:02;5.00;;;3.15;;
62258;SDS011;48241;48.824;10.102;2022-11-15T15:38:28;4.30;;;2.60;;
62258;SDS011;48241;48.824;10.102;2022-11-15T15:40:54;4.32;;;2.58;;
62258;SDS011;48241;48.824;10.102;2022-11-15T15:43:20;4.03;;;2.60;;
62258;SDS011;48241;48.824;10.102;2022-11-15T15:45:45;3.85;;;3.33;;
62258;SDS011;48241;48.824;10.102;2022-11-15T15:48:15;4.32;;;2.83;;
62258;SDS011;48241;48.824;10.102;2022-11-15T15:50:41;7.18;;;3.60;;
62258;SDS011;48241;48.824;10.102;2022-11-15T15:53:08;4.78;;;3.65;;
62258;SDS011;48241;48.824;10.102;2022-11-15T15:55:35;6.53;;;3.60;;
62258;SDS011;48241;48.824;10.102;2022-11-15T15:58:01;4.65;;;3.45;;
62258;SDS011;48241;48.824;10.102;2022-11-15T16:00:27;5.25;;;3.38;;
62258;SDS011;48241;48.824;10.102;2022-11-15T16:02:53;5.00;;;3.38;;
62258;SDS011;48241;48.824;10.102;2022-11-15T16:05:19;7.13;;;4.20;;
62258;SDS011;48241;48.824;10.102;2022-11-15T16:07:45;4.15;;;3.75;;
62258;SDS011;48241;48.824;10.102;2022-11-15T16:10:16;4.97;;;3.50;;
62258;SDS011;48241;48.824;10.102;2022-11-15T16:12:44;5.53;;;3.80;;
62258;SDS011;48241;48.824;10.102;2022-11-15T16:15:10;6.18;;;4.40;;
62258;SDS011;48241;48.824;10.102;2022-11-15T16:17:37;7.18;;;5.18;;
62258;SDS011;48241;48.824;10.102;2022-11-15T16:20:08;6.30;;;4.85;;
62258;SDS011;48241;48.824;10.102;2022-11-15T16:23:02;7.07;;;5.57;;
62258;SDS011;48241;48.824;10.102;2022-11-15T16:25:30;5.88;;;3.10;;
62258;SDS011;48241;48.824;10.102;2022-11-15T16:28:02;5.38;;;4.70;;
62258;SDS011;48241;48.824;10.102;2022-11-15T16:30:27;6.00;;;5.22;;
62258;SDS011;48241;48.824;10.102;2022-11-15T16:32:53;7.90;;;5.60;;
62258;SDS011;48241;48.824;10.102;2022-11-15T16:35:18;5.53;;;4.32;;
62258;SDS011;48241;48.824;10.102;2022-11-15T16:37:44;8.60;;;5.75;;
62258;SDS011;48241;48.824;10.102;2022-11-15T16:40:20;9.23;;;6.43;;
62258;SDS011;48241;48.824;10.102;2022-11-15T16:42:50;7.70;;;5.47;;
62258;SDS011;48241;48.824;10.102;2022-11-15T16:45:16;8.88;;;6.88;;
62258;SDS011;48241;48.824;10.102;2022-11-15T16:47:41;9.85;;;4.82;;
62258;SDS011;48241;48.824;10.102;2022-11-15T16:50:28;10.68;;;7.80;;
62258;SDS011;48241;48.824;10.102;2022-11-15T16:52:55;9.52;;;7.10;;
62258;SDS011;48241;48.824;10.102;2022-11-15T16:55:23;9.77;;;7.78;;
62258;SDS011;48241;48.824;10.102;2022-11-15T16:57:50;9.27;;;6.85;;
62258;SDS011;48241;48.824;10.102;2022-11-15T17:00:17;10.85;;;7.80;;
62258;SDS011;48241;48.824;10.102;2022-11-15T17:02:44;11.18;;;8.18;;
62258;SDS011;48241;48.824;10.102;2022-11-15T17:05:10;9.52;;;5.10;;
62258;SDS011;48241;48.824;10.102;2022-11-15T17:07:37;10.75;;;6.72;;
62258;SDS011;48241;48.824;10.102;2022-11-15T17:10:04;10.75;;;7.80;;
62258;SDS011;48241;48.824;10.102;2022-11-15T17:12:33;8.65;;;7.55;;
62258;SDS011;48241;48.824;10.102;2022-11-15T17:15:01;7.63;;;5.75;;
62258;SDS011;48241;48.824;10.102;2022-11-15T17:17:35;10.38;;;6.82;;
62258;SDS011;48241;48.824;10.102;2022-11-15T17:20:00;9.43;;;6.68;;
62258;SDS011;48241;48.824;10.102;2022-11-15T17:22:29;12.82;;;7.03;;